Time;durP1;ratioP1;P1;durP2;ratioP2;P2;SDS_P1;SDS_P2;PMS_P1;PMS_P2;Temp;Humidity;BMP_temperature;BMP_pressure;BME280_temperature;BME280_humidity;BME280_pressure;Samples;Min_cycle;Max_cycle;Signal;HPM_P1;HPM_P2
2022/06/13 00:01:16;;;;;;;8.37;7.60;;;;;;;15.87;100.00;97049.13;4854834;29;20219;-63
2022/06/13 00:03:44;;;;;;;8.60;7.90;;;;;;;15.84;100.00;97050.41;4851463;29;20617;-65
2022/06/13 00:06:14;;;;;;;8.73;7.53;;;;;;;15.88;100.00;97037.44;4815581;29;20225;-66
2022/06/13 00:08:43;;;;;;;7.87;7.30;;;;;;;16.06;100.00;97032.13;4835307;29;20252;-65
2022/06/13 00:11:14;;;;;;;9.43;8.03;;;;;;;16.05;100.00;97035.00;4852802;29;20218;-64
2022/06/13 00:13:45;;;;;;;8.57;7.87;;;;;;;16.13;100.00;97039.25;4837275;29;20253;-64
2022/06/13 00:16:14;;;;;;;8.53;7.83;;;;;;;16.13;100.00;97036.56;4847506;29;20219;-64
2022/06/13 00:18:47;;;;;;;9.13;8.03;;;;;;;16.05;100.00;97035.00;4852467;29;20234;-66
2022/06/13 00:21:18;;;;;;;8.17;7.50;;;;;;;15.96;100.00;97029.16;4813096;29;20225;-65
2022/06/13 00:23:47;;;;;;;8.73;8.03;;;;;;;16.09;100.00;97048.75;4835929;29;20237;-66
2022/06/13 00:26:15;;;;;;;10.50;8.83;;;;;;;16.23;100.00;97054.75;4843313;29;20274;-65
2022/06/13 00:28:45;;;;;;;8.77;8.10;;;;;;;16.22;100.00;97069.97;4836896;29;20225;-65
2022/06/13 00:31:13;;;;;;;9.33;8.43;;;;;;;16.02;100.00;97086.22;4851129;29;20232;-64
2022/06/13 00:33:42;;;;;;;9.20;8.57;;;;;;;15.91;100.00;97099.28;4852062;29;20320;-64
2022/06/13 00:36:11;;;;;;;11.23;9.37;;;;;;;15.98;100.00;97104.56;4810822;29;20249;-64
2022/06/13 00:38:39;;;;;;;9.67;8.67;;;;;;;16.16;100.00;97106.44;4831149;29;20233;-63
2022/06/13 00:41:09;;;;;;;8.73;8.13;;;;;;;16.16;100.00;97101.09;4851629;29;20635;-64
2022/06/13 00:43:39;;;;;;;10.00;9.03;;;;;;;16.07;100.00;97091.72;4852664;29;20386;-65
2022/06/13 00:46:20;;;;;;;8.67;8.00;;;;;;;16.01;100.00;97084.59;4833704;29;20614;-63
2022/06/13 00:48:49;;;;;;;8.30;7.50;;;;;;;16.02;100.00;97055.00;4853799;29;20278;-63
2022/06/13 00:51:17;;;;;;;7.60;7.00;;;;;;;15.85;100.00;97048.53;4809868;29;20313;-64
2022/06/13 00:53:46;;;;;;;6.83;6.43;;;;;;;15.83;100.00;97058.63;4835898;29;20239;-64
2022/06/13 00:56:17;;;;;;;7.50;6.90;;;;;;;15.73;100.00;97065.31;4850627;29;20214;-64
2022/06/13 00:58:48;;;;;;;6.93;6.43;;;;;;;15.77;100.00;97057.69;4851025;29;20221;-65
2022/06/13 01:01:18;;;;;;;7.13;6.53;;;;;;;15.85;100.00;97052.03;4832311;29;20226;-63
2022/06/13 01:03:48;;;;;;;7.30;6.70;;;;;;;15.71;100.00;97048.69;4848226;29;20659;-65
2022/06/13 01:06:17;;;;;;;7.07;6.37;;;;;;;15.63;100.00;97043.63;4820615;29;20218;-64
2022/06/13 01:08:46;;;;;;;6.80;6.40;;;;;;;15.66;100.00;97051.19;4835385;29;20232;-65
2022/06/13 01:11:17;;;;;;;6.60;6.03;;;;;;;15.59;100.00;97061.94;4855666;29;20301;-63
2022/06/13 01:14:13;;;;;;;6.23;5.83;;;;;;;15.65;100.00;97060.25;4853507;29;20273;-65
2022/06/13 01:16:52;;;;;;;6.33;5.83;;;;;;;15.65;100.00;97054.91;4832904;29;20301;-66
2022/06/13 01:19:55;;;;;;;6.50;6.03;;;;;;;15.62;100.00;97072.19;4844486;29;20238;-64
2022/06/13 01:22:52;;;;;;;6.37;5.73;;;;;;;15.78;100.00;97070.00;4800623;29;25760;-63
2022/06/13 01:25:43;;;;;;;6.07;5.40;;;;;;;15.89;100.00;97085.31;4833163;29;21311;-63
2022/06/13 01:28:37;;;;;;;6.97;6.33;;;;;;;15.86;100.00;97084.91;4852439;29;20274;-63
2022/06/13 01:31:12;;;;;;;6.67;5.63;;;;;;;15.94;100.00;97083.84;4836821;29;20911;-64
2022/06/13 01:33:51;;;;;;;6.53;5.97;;;;;;;16.00;100.00;97073.09;4849713;29;20240;-63
2022/06/13 01:36:32;;;;;;;6.33;5.70;;;;;;;15.91;100.00;97077.91;4850760;29;20217;-63
2022/06/13 01:39:12;;;;;;;5.67;5.27;;;;;;;15.80;100.00;97099.16;4789801;29;20289;-62
2022/06/13 01:41:48;;;;;;;5.67;5.27;;;;;;;15.57;100.00;97092.59;4837864;29;20273;-65
2022/06/13 01:44:22;;;;;;;5.87;5.37;;;;;;;15.68;100.00;97077.69;4846233;29;20301;-63
2022/06/13 01:46:59;;;;;;;5.73;5.33;;;;;;;15.87;100.00;97084.69;4834739;29;20224;-63
2022/06/13 01:49:32;;;;;;;5.73;5.23;;;;;;;15.89;100.00;97092.50;4844321;29;20222;-63
2022/06/13 01:52:03;;;;;;;5.13;4.73;;;;;;;15.73;100.00;97104.56;4848888;29;20214;-63
2022/06/13 01:54:38;;;;;;;6.13;5.53;;;;;;;15.71;100.00;97118.13;4816833;29;20725;-63
2022/06/13 03:07:12;;;;;;;4.40;4.10;;;;;;;15.16;100.00;97066.19;4823345;29;20907;-60
2022/06/13 03:09:44;;;;;;;4.63;4.30;;;;;;;15.10;100.00;97056.38;4851243;29;20320;-62
2022/06/13 03:12:16;;;;;;;4.70;4.33;;;;;;;15.17;100.00;97051.81;4787369;29;20713;-63
2022/06/13 03:14:49;;;;;;;4.80;4.40;;;;;;;15.03;100.00;97058.25;4828659;29;20555;-62
2022/06/13 03:17:23;;;;;;;5.10;4.80;;;;;;;15.06;100.00;97065.84;4855027;29;20463;-62
2022/06/13 03:19:55;;;;;;;4.27;4.03;;;;;;;15.05;100.00;97059.69;4850661;29;20489;-63
2022/06/13 03:22:29;;;;;;;4.83;4.50;;;;;;;15.02;100.00;97054.78;4852673;29;20679;-62
2022/06/13 03:25:03;;;;;;;3.97;3.77;;;;;;;15.03;100.00;97064.44;4818766;29;20213;-61
2022/06/13 03:27:36;;;;;;;4.93;4.63;;;;;;;15.16;100.00;97065.38;4787913;29;20217;-63
2022/06/13 03:30:08;;;;;;;5.23;4.93;;;;;;;15.17;100.00;97067.00;4830406;29;20217;-62
2022/06/13 03:32:39;;;;;;;4.77;4.47;;;;;;;15.15;100.00;97064.56;4828580;29;20242;-62
2022/06/13 03:35:17;;;;;;;5.27;4.73;;;;;;;15.16;100.00;97071.53;4850866;29;20209;-62
2022/06/13 03:37:48;;;;;;;4.43;4.23;;;;;;;15.18;100.00;97079.31;4793174;29;20213;-61
2022/06/13 03:40:19;;;;;;;5.13;4.83;;;;;;;15.16;100.00;97086.72;4852557;29;20261;-63
2022/06/13 03:42:50;;;;;;;5.30;4.90;;;;;;;15.13;100.00;97095.16;4823607;29;21468;-63
2022/06/13 03:45:24;;;;;;;5.27;4.87;;;;;;;15.04;100.00;97092.75;4812434;29;20812;-62
2022/06/13 03:47:55;;;;;;;4.93;4.47;;;;;;;15.07;100.00;97096.00;4821264;29;20321;-62
2022/06/13 03:50:27;;;;;;;5.33;4.83;;;;;;;15.08;100.00;97092.31;4848822;29;20268;-62
2022/06/13 03:53:08;;;;;;;5.50;5.07;;;;;;;15.08;100.00;97093.13;4852952;29;20241;-62
2022/06/13 03:55:41;;;;;;;6.20;5.70;;;;;;;15.01;100.00;97093.19;4853674;29;20241;-62
2022/06/13 03:58:13;;;;;;;5.10;4.80;;;;;;;15.09;100.00;97108.09;4815444;29;20781;-62
2022/06/13 04:00:47;;;;;;;4.67;4.30;;;;;;;15.03;100.00;97106.28;4812214;29;20312;-61
2022/06/13 04:03:16;;;;;;;5.03;4.83;;;;;;;15.04;100.00;97107.91;4844952;29;20229;-61
2022/06/13 04:05:56;;;;;;;5.23;4.93;;;;;;;15.05;100.00;97110.38;4849698;29;20270;-63
2022/06/13 04:08:26;;;;;;;5.00;4.70;;;;;;;14.99;100.00;97111.25;4854417;29;20970;-61
2022/06/13 04:11:09;;;;;;;5.70;5.30;;;;;;;15.07;100.00;97112.81;4852964;29;20271;-62
2022/06/13 04:13:46;;;;;;;6.33;5.50;;;;;;;14.87;100.00;97112.94;4819265;29;20241;-61
2022/06/13 04:16:30;;;;;;;5.47;5.17;;;;;;;14.88;100.00;97117.25;4810246;29;20234;-62
2022/06/13 04:19:10;;;;;;;5.70;5.20;;;;;;;14.96;100.00;97108.97;4823598;29;20286;-62
2022/06/13 04:21:42;;;;;;;5.10;4.80;;;;;;;14.98;100.00;97111.44;4847885;29;20225;-62
2022/06/13 04:24:19;;;;;;;4.50;4.20;;;;;;;15.01;100.00;97108.34;4846843;29;20230;-63
2022/06/13 04:26:52;;;;;;;4.87;4.57;;;;;;;15.05;100.00;97107.72;4850918;29;20725;-64
2022/06/13 04:29:25;;;;;;;5.00;4.70;;;;;;;15.02;100.00;97110.00;4815063;29;20572;-63
2022/06/13 04:31:55;;;;;;;5.03;4.63;;;;;;;15.16;100.00;97114.22;4814662;29;20325;-63
2022/06/13 04:34:26;;;;;;;5.03;4.60;;;;;;;15.25;100.00;97114.75;4851852;29;20214;-62
2022/06/13 04:36:54;;;;;;;5.13;4.73;;;;;;;15.43;100.00;97114.03;4850171;29;20244;-62
2022/06/13 04:39:29;;;;;;;5.07;4.67;;;;;;;15.54;100.00;97119.72;4848461;29;20250;-63
2022/06/13 04:41:59;;;;;;;5.70;5.20;;;;;;;15.43;100.00;97123.91;4849648;29;20213;-60
2022/06/13 04:44:29;;;;;;;5.53;5.03;;;;;;;15.67;100.00;97124.13;4816338;29;20288;-64
2022/06/13 04:46:58;;;;;;;4.70;4.40;;;;;;;15.61;100.00;97126.63;4813833;29;20213;-62
2022/06/13 04:49:30;;;;;;;5.27;4.87;;;;;;;15.59;100.00;97128.69;4851814;29;20352;-63
2022/06/13 04:51:59;;;;;;;4.53;4.23;;;;;;;15.74;100.00;97127.56;4850323;29;20256;-62
2022/06/13 04:54:32;;;;;;;4.53;4.23;;;;;;;15.66;100.00;97136.66;4852952;29;20214;-64
2022/06/13 04:57:00;;;;;;;4.73;4.43;;;;;;;15.81;100.00;97132.84;4844459;29;20663;-62
2022/06/13 04:59:30;;;;;;;4.40;4.20;;;;;;;15.90;100.00;97124.34;4848056;29;20321;-64
2022/06/13 05:01:59;;;;;;;4.83;4.33;;;;;;;15.75;100.00;97129.22;4802026;29;20223;-62
2022/06/13 05:04:30;;;;;;;4.57;4.27;;;;;;;15.78;100.00;97121.56;4846569;29;20217;-64
2022/06/13 05:07:01;;;;;;;5.27;4.97;;;;;;;15.60;100.00;97122.31;4849574;29;20324;-62
2022/06/13 05:09:35;;;;;;;5.00;4.60;;;;;;;15.74;100.00;97122.22;4849468;29;20306;-63
2022/06/13 05:12:09;;;;;;;4.60;4.17;;;;;;;15.70;100.00;97126.34;4848748;29;20638;-62
2022/06/13 05:14:40;;;;;;;4.93;4.60;;;;;;;15.81;100.00;97131.00;4853337;29;20220;-64
2022/06/13 05:17:30;;;;;;;4.97;4.67;;;;;;;15.80;100.00;97124.03;4818929;29;20221;-64
2022/06/13 05:20:04;;;;;;;4.87;4.57;;;;;;;16.10;100.00;97125.22;4845685;29;20236;-62
2022/06/13 05:22:53;;;;;;;5.23;4.83;;;;;;;16.28;100.00;97117.19;4847534;29;20300;-62
2022/06/13 05:25:32;;;;;;;4.93;4.67;;;;;;;16.46;100.00;97120.91;4846801;29;20270;-63
2022/06/13 05:28:01;;;;;;;4.70;4.40;;;;;;;16.80;100.00;97113.31;4846101;29;20326;-62
2022/06/13 05:30:30;;;;;;;5.23;4.83;;;;;;;17.06;100.00;97106.00;4852795;29;20231;-63
2022/06/13 05:33:04;;;;;;;4.57;4.27;;;;;;;17.07;100.00;97110.31;4812971;29;20237;-61
2022/06/13 05:35:35;;;;;;;5.00;4.60;;;;;;;17.06;100.00;97111.38;4848868;29;20210;-62
2022/06/13 05:38:05;;;;;;;4.83;4.53;;;;;;;17.35;100.00;97115.03;4847530;29;20225;-61
2022/06/13 05:40:35;;;;;;;4.83;4.53;;;;;;;17.35;100.00;97115.03;4846050;29;20631;-62
2022/06/13 05:43:03;;;;;;;4.70;4.50;;;;;;;17.16;100.00;97111.63;4846959;29;20245;-61
2022/06/13 05:45:32;;;;;;;4.90;4.50;;;;;;;16.94;100.00;97111.28;4851682;29;20301;-62
2022/06/13 05:48:00;;;;;;;8.13;6.57;;;;;;;17.30;100.00;97125.63;4809473;29;20233;-60
2022/06/13 05:50:33;;;;;;;5.83;5.13;;;;;;;17.21;100.00;97124.31;4818546;29;20236;-61
2022/06/13 05:53:01;;;;;;;7.30;6.10;;;;;;;17.31;100.00;97126.44;4852429;29;20245;-62
2022/06/13 05:55:30;;;;;;;5.17;4.47;;;;;;;17.10;100.00;97131.28;4829653;29;20218;-60
2022/06/13 05:58:02;;;;;;;9.97;5.97;;;;;;;17.41;100.00;97124.00;4852564;29;20257;-61
2022/06/13 06:00:36;;;;;;;4.90;4.60;;;;;;;17.58;100.00;97137.56;4847255;29;20318;-62
2022/06/13 06:03:05;;;;;;;5.80;4.67;;;;;;;17.70;100.00;97132.22;4814590;29;20736;-62
2022/06/13 06:05:33;;;;;;;5.03;4.53;;;;;;;17.97;100.00;97136.31;4853514;29;20790;-63
2022/06/13 06:08:02;;;;;;;4.37;4.07;;;;;;;18.49;100.00;97135.59;4849228;29;20582;-61
2022/06/13 06:10:32;;;;;;;5.10;4.77;;;;;;;18.25;100.00;97135.66;4831518;29;20691;-63
2022/06/13 06:13:02;;;;;;;4.20;3.80;;;;;;;18.81;100.00;97124.44;4847971;29;20249;-62
2022/06/13 06:15:30;;;;;;;3.63;3.33;;;;;;;18.79;100.00;97123.88;4854248;29;20210;-64
2022/06/13 06:17:59;;;;;;;3.70;3.30;;;;;;;18.43;100.00;97139.22;4847688;29;20222;-62
2022/06/13 06:20:27;;;;;;;4.03;3.80;;;;;;;18.07;100.00;97136.59;4823060;29;20762;-64
2022/06/13 06:22:55;;;;;;;4.10;3.80;;;;;;;18.87;100.00;97134.22;4849063;29;20238;-62
2022/06/13 06:25:24;;;;;;;4.30;4.00;;;;;;;18.79;100.00;97132.75;4836873;29;20358;-64
2022/06/13 06:27:52;;;;;;;3.57;3.30;;;;;;;18.40;100.00;97151.28;4853648;29;20214;-63
2022/06/13 06:30:22;;;;;;;4.30;3.33;;;;;;;18.26;100.00;97147.19;4854533;29;20229;-64
2022/06/13 06:32:55;;;;;;;4.30;4.00;;;;;;;18.48;100.00;97145.53;4847153;29;20324;-62
2022/06/13 06:35:24;;;;;;;4.27;3.87;;;;;;;18.49;100.00;97146.34;4802838;29;20323;-63
2022/06/13 06:37:53;;;;;;;3.90;3.53;;;;;;;18.15;100.00;97146.13;4845827;29;20293;-62
2022/06/13 06:40:24;;;;;;;4.57;3.20;;;;;;;17.97;100.00;97147.03;4830669;29;20234;-64
2022/06/13 06:42:53;;;;;;;3.40;3.20;;;;;;;18.14;100.00;97152.53;4837761;29;20614;-62
2022/06/13 06:45:26;;;;;;;3.83;3.50;;;;;;;18.41;100.00;97144.84;4856981;29;20325;-64
2022/06/13 06:47:55;;;;;;;3.10;3.00;;;;;;;18.61;100.00;97124.84;4851767;29;20727;-63
2022/06/13 06:50:26;;;;;;;4.13;3.50;;;;;;;18.51;100.00;97125.44;4815684;29;20487;-63
2022/06/13 06:52:55;;;;;;;3.53;3.23;;;;;;;18.28;100.00;97134.34;4853541;29;20241;-62
2022/06/13 07:01:01;;;;;;;3.37;3.07;;;;;;;18.91;100.00;97126.53;4853275;29;20773;-62
2022/06/13 07:03:30;;;;;;;3.37;3.10;;;;;;;18.84;100.00;97125.84;4857571;29;20336;-65
2022/06/13 07:05:59;;;;;;;3.67;3.37;;;;;;;19.45;100.00;97128.03;4815118;29;20221;-65
2022/06/13 07:08:28;;;;;;;3.97;3.67;;;;;;;19.59;100.00;97129.38;4853590;29;20206;-64
2022/06/13 07:11:53;;;;;;;3.93;3.70;;;;;;;19.21;100.00;97125.50;4853707;29;20216;-63
2022/06/13 07:13:48;;;;;;;3.60;3.30;;;;;;;19.05;100.00;97127.88;4834203;29;20238;-64
2022/06/13 07:16:18;;;;;;;3.57;3.23;;;;;;;18.98;100.00;97129.09;4853556;29;20498;-63
2022/06/13 07:18:47;;;;;;;4.50;3.50;;;;;;;19.21;100.00;97128.19;4856880;29;20342;-63
2022/06/13 07:21:16;;;;;;;3.50;3.13;;;;;;;19.16;100.00;97136.16;4814854;29;20244;-63
2022/06/13 07:23:44;;;;;;;3.87;3.57;;;;;;;19.31;100.00;97131.03;4852337;29;20243;-62
2022/06/13 07:26:12;;;;;;;4.20;3.60;;;;;;;19.30;100.00;97128.59;4856941;29;20567;-62
2022/06/13 07:28:41;;;;;;;4.00;3.70;;;;;;;19.61;100.00;97135.31;4821401;29;20210;-64
2022/06/13 07:31:12;;;;;;;3.60;3.40;;;;;;;19.38;100.00;97136.28;4858712;29;20226;-64
2022/06/13 07:33:43;;;;;;;3.77;3.40;;;;;;;19.69;100.00;97144.03;4855239;29;20233;-62
2022/06/13 07:36:12;;;;;;;4.10;3.80;;;;;;;19.55;100.00;97138.16;4853097;29;20304;-61
2022/06/13 07:38:40;;;;;;;3.93;3.23;;;;;;;19.77;100.00;97139.06;4822076;29;20328;-63
2022/06/13 07:41:12;;;;;;;4.77;3.83;;;;;;;19.69;100.00;97131.38;4854659;29;20305;-62
2022/06/13 07:43:40;;;;;;;4.13;3.77;;;;;;;20.07;100.00;97131.72;4854593;29;20444;-62
2022/06/13 07:46:11;;;;;;;4.37;3.67;;;;;;;;;;4847603;29;20301;-63
2022/06/13 07:48:39;;;;;;;5.40;3.53;;;;;;;21.00;100.00;97129.44;4855315;29;20221;-63
2022/06/13 07:51:09;;;;;;;4.10;3.80;;;;;;;20.57;100.00;97135.38;4850969;29;20202;-62
2022/06/13 07:53:37;;;;;;;4.40;4.00;;;;;;;20.13;100.00;97136.13;4814074;29;20257;-63
2022/06/13 07:56:26;;;;;;;4.07;3.20;;;;;;;21.05;100.00;97133.00;4853754;29;20262;-62
2022/06/13 07:58:54;;;;;;;5.00;3.90;;;;;;;21.62;100.00;97130.03;4853881;29;20225;-60
2022/06/13 08:01:23;;;;;;;3.87;3.63;;;;;;;20.90;100.00;97127.44;4854141;29;20283;-61
2022/06/13 08:03:52;;;;;;;5.10;4.70;;;;;;;20.37;100.00;97144.78;4851934;29;20239;-62
2022/06/13 08:06:23;;;;;;;4.07;3.77;;;;;;;19.71;100.00;97139.22;4856857;29;20304;-61
2022/06/13 08:08:52;;;;;;;6.53;4.60;;;;;;;19.90;100.00;97134.41;4816913;29;20225;-62
2022/06/13 08:11:27;;;;;;;6.63;4.20;;;;;;;20.24;100.00;97147.84;4850344;29;20273;-61
2022/06/13 08:13:55;;;;;;;4.50;4.10;;;;;;;20.64;100.00;97143.25;4852878;29;20236;-61
2022/06/13 08:16:24;;;;;;;5.23;3.90;;;;;;;20.82;100.00;97140.28;4852306;29;20218;-61
2022/06/13 08:18:52;;;;;;;5.37;3.70;;;;;;;20.44;100.00;97146.50;4850493;29;20241;-62
2022/06/13 08:21:23;;;;;;;4.47;4.07;;;;;;;20.18;100.00;97154.22;4850578;29;20658;-61
2022/06/13 08:23:51;;;;;;;4.40;4.00;;;;;;;20.39;100.00;97149.94;4814624;29;20305;-63
2022/06/13 08:26:20;;;;;;;5.10;4.07;;;;;;;20.50;100.00;97151.69;4856933;29;20229;-61
2022/06/13 08:28:48;;;;;;;5.70;3.63;;;;;;;20.39;100.00;97152.63;4852093;29;20210;-62
2022/06/13 08:31:19;;;;;;;5.03;3.60;;;;;;;20.59;100.00;97162.03;4853636;29;20759;-59
2022/06/13 08:33:49;;;;;;;4.17;3.83;;;;;;;20.20;100.00;97155.59;4850516;29;20352;-62
2022/06/13 08:36:17;;;;;;;4.57;3.77;;;;;;;20.44;100.00;97160.75;4845452;29;20286;-61
2022/06/13 08:38:47;;;;;;;4.20;3.90;;;;;;;20.56;100.00;97157.97;4812451;29;20234;-64
2022/06/13 08:41:22;;;;;;;4.03;3.67;;;;;;;20.58;100.00;97161.22;4852836;29;20291;-61
2022/06/13 08:44:03;;;;;;;4.53;4.13;;;;;;;20.52;100.00;97165.72;4850118;29;20240;-60
2022/06/13 08:46:40;;;;;;;3.83;3.40;;;;;;;20.39;100.00;97164.19;4853069;29;20628;-60
2022/06/13 08:49:12;;;;;;;3.67;3.40;;;;;;;20.66;100.00;97166.16;4853617;29;20216;-63
2022/06/13 08:51:45;;;;;;;4.93;4.57;;;;;;;20.89;100.00;97158.13;4850604;29;20221;-63
2022/06/13 08:54:20;;;;;;;4.13;3.73;;;;;;;20.99;100.00;97152.03;4850343;29;21394;-61
2022/06/13 08:56:50;;;;;;;3.70;3.40;;;;;;;21.19;100.00;97157.63;4841545;29;20234;-62
2022/06/13 08:59:24;;;;;;;4.47;4.07;;;;;;;21.06;100.00;97164.25;4853144;29;20214;-61
2022/06/13 09:01:55;;;;;;;4.43;4.13;;;;;;;21.13;100.00;97157.84;4848913;29;20234;-63
2022/06/13 09:04:27;;;;;;;4.47;4.07;;;;;;;21.29;100.00;97154.25;4844570;29;20241;-61
2022/06/13 09:07:03;;;;;;;3.57;3.27;;;;;;;21.35;100.00;97157.81;4852654;29;20834;-61
2022/06/13 09:09:38;;;;;;;4.53;3.70;;;;;;;21.44;100.00;97168.94;4851735;29;20312;-61
2022/06/13 09:12:22;;;;;;;3.90;3.50;;;;;;;21.50;100.00;97167.94;4817292;29;20331;-62
2022/06/13 09:14:55;;;;;;;4.70;4.30;;;;;;;21.58;100.00;97159.38;4852544;29;20301;-62
2022/06/13 09:17:29;;;;;;;3.80;3.00;;;;;;;21.57;100.00;97157.75;4847833;29;20701;-61
2022/06/13 09:20:04;;;;;;;3.63;3.30;;;;;;;21.44;99.46;97155.47;4853626;29;20639;-61
2022/06/13 09:22:37;;;;;;;3.60;3.30;;;;;;;21.34;100.00;97162.38;4828955;29;20240;-60
2022/06/13 09:25:10;;;;;;;3.50;3.20;;;;;;;21.61;99.05;97158.84;4851084;29;21141;-62
2022/06/13 09:27:44;;;;;;;3.93;3.57;;;;;;;21.92;100.00;97163.72;4822361;29;20282;-61
2022/06/13 09:30:15;;;;;;;4.40;3.27;;;;;;;22.10;96.41;97163.31;4836887;29;20218;-61
2022/06/13 09:32:48;;;;;;;3.27;2.90;;;;;;;22.15;97.48;97170.63;4827390;29;21042;-61
2022/06/13 09:35:21;;;;;;;3.33;3.13;;;;;;;22.33;90.45;97172.09;4852794;29;20221;-61
2022/06/13 09:37:53;;;;;;;4.27;2.80;;;;;;;22.38;83.78;97165.91;4832994;29;21030;-61
2022/06/13 09:40:30;;;;;;;5.77;3.07;;;;;;;22.18;81.88;97169.31;4851117;29;21002;-61
2022/06/13 09:43:08;;;;;;;2.67;2.50;;;;;;;22.08;87.16;97164.63;4822374;29;20235;-60
2022/06/13 09:45:46;;;;;;;3.70;2.93;;;;;;;21.91;89.36;97170.19;4835775;29;21182;-60
2022/06/13 09:48:25;;;;;;;4.17;2.90;;;;;;;22.06;81.08;97162.22;4853411;29;20210;-60
2022/06/13 09:51:07;;;;;;;3.93;2.60;;;;;;;22.46;81.64;97159.25;4849978;29;20981;-61
2022/06/13 09:53:41;;;;;;;3.10;2.40;;;;;;;22.53;78.04;97168.72;4833202;29;20233;-61
2022/06/13 09:56:15;;;;;;;3.13;2.43;;;;;;;22.61;67.48;97161.22;4848310;29;20229;-60
2022/06/13 09:58:53;;;;;;;2.23;2.13;;;;;;;22.77;63.63;97167.50;4800911;29;21134;-61
2022/06/13 10:01:23;;;;;;;4.03;2.70;;;;;;;22.94;57.69;97167.31;4851165;29;20217;-60
2022/06/13 10:03:56;;;;;;;2.50;2.30;;;;;;;23.15;60.11;97167.34;4845023;29;20329;-61
2022/06/13 10:06:31;;;;;;;4.13;2.70;;;;;;;22.51;62.65;97168.16;4848909;29;20217;-62
2022/06/13 10:09:14;;;;;;;3.37;2.17;;;;;;;22.22;65.51;97171.22;4836879;29;20217;-61
2022/06/13 10:11:49;;;;;;;3.20;2.40;;;;;;;22.53;66.89;97166.03;4847760;29;20903;-61
2022/06/13 10:14:53;;;;;;;3.60;2.40;;;;;;;22.66;65.00;97161.25;4819758;29;20230;-61
2022/06/13 10:17:33;;;;;;;2.90;2.20;;;;;;;22.45;61.96;97180.00;4853730;29;20265;-60
2022/06/13 10:20:08;;;;;;;2.30;2.10;;;;;;;22.52;55.62;97166.28;4845327;29;20220;-61
2022/06/13 10:22:41;;;;;;;2.60;2.03;;;;;;;22.38;52.93;97157.81;4844280;29;20237;-60
2022/06/13 10:25:27;;;;;;;2.10;1.80;;;;;;;22.73;53.91;97166.38;4834610;29;20617;-60
2022/06/13 10:28:03;;;;;;;3.13;2.17;;;;;;;22.52;47.59;97153.59;4813494;29;25136;-61
2022/06/13 10:30:42;;;;;;;2.93;1.90;;;;;;;22.52;47.78;97171.69;4838939;29;20214;-60
2022/06/13 10:33:19;;;;;;;1.70;1.60;;;;;;;22.73;48.91;97164.50;4842044;29;20256;-60
2022/06/13 10:35:50;;;;;;;3.47;2.03;;;;;;;22.76;45.38;97174.78;4851636;29;20452;-59
2022/06/13 10:38:30;;;;;;;5.00;2.13;;;;;;;22.66;46.96;97164.75;4854499;29;20552;-60
2022/06/13 10:40:58;;;;;;;5.27;2.30;;;;;;;22.20;47.03;97175.25;4838153;29;20214;-60
2022/06/13 10:43:28;;;;;;;2.83;1.80;;;;;;;22.01;45.81;97177.53;4815529;29;20638;-60
2022/06/13 10:45:57;;;;;;;3.07;1.93;;;;;;;22.18;48.16;97172.81;4835191;29;20635;-60
2022/06/13 10:48:29;;;;;;;1.80;1.70;;;;;;;22.26;48.79;97172.34;4853455;29;20293;-61
2022/06/13 10:50:59;;;;;;;2.90;1.97;;;;;;;22.54;51.08;97164.16;4838665;29;20229;-60
2022/06/13 10:53:31;;;;;;;3.50;2.37;;;;;;;22.81;49.14;97147.78;4853900;29;20232;-61
2022/06/13 10:56:00;;;;;;;2.50;1.90;;;;;;;22.65;51.76;97167.72;4833971;29;20348;-61
2022/06/13 10:58:37;;;;;;;2.03;1.67;;;;;;;22.26;50.85;97175.03;4841818;29;20210;-60
2022/06/13 11:01:11;;;;;;;3.03;2.10;;;;;;;22.34;52.94;97181.00;4803190;29;20279;-59
2022/06/13 11:03:42;;;;;;;5.23;1.70;;;;;;;22.17;48.43;97173.91;4863413;29;20236;-59
2022/06/13 11:06:18;;;;;;;4.60;2.43;;;;;;;22.24;50.13;97165.56;4855265;29;20222;-61
2022/06/13 11:08:47;;;;;;;3.63;2.10;;;;;;;21.98;50.58;97165.41;4857982;29;20884;-59
2022/06/13 11:11:29;;;;;;;3.47;2.27;;;;;;;22.16;52.35;97156.09;4852109;29;20934;-60
2022/06/13 11:13:59;;;;;;;3.43;1.70;;;;;;;22.38;43.20;97163.22;4826696;29;20562;-60
2022/06/13 11:25:13;;;;;;;3.67;2.30;;;;;;;21.96;47.39;97175.59;4850650;29;20205;-61
2022/06/13 11:27:42;;;;;;;2.43;2.20;;;;;;;21.83;46.72;97184.97;4852286;29;20602;-59
2022/06/13 11:30:45;;;;;;;2.47;2.00;;;;;;;22.16;47.13;97183.06;4855990;29;20401;-57
2022/06/13 11:33:21;;;;;;;3.00;2.30;;;;;;;22.10;45.37;97184.91;4823625;29;21009;-60
2022/06/13 11:35:51;;;;;;;2.70;1.83;;;;;;;22.06;46.72;97175.72;4854474;29;20222;-60
2022/06/13 11:38:23;;;;;;;2.97;2.13;;;;;;;22.04;46.08;97187.81;4856684;29;20671;-59
2022/06/13 11:41:15;;;;;;;2.33;1.67;;;;;;;21.93;44.69;97189.59;4849793;29;20573;-59
2022/06/13 11:43:46;;;;;;;1.83;1.43;;;;;;;22.08;40.72;97188.91;4850519;29;20234;-60
2022/06/13 11:46:33;;;;;;;3.30;2.27;;;;;;;22.19;42.96;97192.50;4821585;29;20232;-60
2022/06/13 11:49:06;;;;;;;1.87;1.77;;;;;;;22.30;41.50;97180.69;4834256;29;20862;-62
2022/06/13 11:51:41;;;;;;;3.50;2.07;;;;;;;22.59;40.55;97187.66;4850490;29;20241;-61
2022/06/13 11:54:20;;;;;;;4.17;1.60;;;;;;;22.52;40.89;97186.00;4853689;29;20249;-60
2022/06/13 11:56:48;;;;;;;1.80;1.70;;;;;;;22.96;37.53;97190.25;4854641;29;20230;-60
2022/06/13 11:59:19;;;;;;;2.20;1.60;;;;;;;23.38;39.84;97187.72;4851458;29;20209;-60
2022/06/13 12:01:56;;;;;;;2.10;1.87;;;;;;;23.27;37.16;97179.59;4819036;29;20214;-61
2022/06/13 12:04:25;;;;;;;3.17;2.00;;;;;;;23.27;40.81;97179.59;4857214;29;20234;-61
2022/06/13 12:06:59;;;;;;;2.20;1.80;;;;;;;23.59;40.32;97187.75;4853870;29;20228;-60
2022/06/13 12:09:31;;;;;;;3.30;2.27;;;;;;;22.96;38.47;97200.28;4852694;29;20239;-60
2022/06/13 12:12:02;;;;;;;4.77;1.73;;;;;;;23.27;38.25;97208.47;4846921;29;20640;-60
2022/06/13 12:14:37;;;;;;;2.60;2.07;;;;;;;23.53;35.15;97198.56;4855067;29;20209;-61
2022/06/13 12:17:10;;;;;;;6.83;1.70;;;;;;;23.38;35.44;97201.22;4814236;29;20796;-61
2022/06/13 12:19:44;;;;;;;2.27;1.90;;;;;;;23.02;38.24;97209.19;4856956;29;20245;-61
2022/06/13 12:22:16;;;;;;;2.03;1.83;;;;;;;23.14;37.32;97209.78;4851395;29;20213;-61
2022/06/13 12:24:54;;;;;;;2.77;2.00;;;;;;;22.97;36.88;97213.50;4854683;29;20233;-61
2022/06/13 12:27:36;;;;;;;3.87;1.97;;;;;;;22.98;38.19;97200.81;4854628;29;20762;-61
2022/06/13 12:30:16;;;;;;;2.57;2.20;;;;;;;23.53;37.17;97203.97;4850008;29;20221;-62
2022/06/13 12:32:48;;;;;;;1.63;1.53;;;;;;;22.97;35.54;97213.50;4836896;29;20744;-61
2022/06/13 12:35:39;;;;;;;2.83;1.80;;;;;;;22.50;37.67;97209.75;4850649;29;20232;-61
2022/06/13 12:38:21;;;;;;;11.07;2.50;;;;;;;23.97;36.05;97201.84;4849110;29;20218;-61
2022/06/13 12:40:58;;;;;;;3.07;2.17;;;;;;;26.66;30.84;97200.50;4849296;29;20214;-61
2022/06/13 12:43:40;;;;;;;1.90;1.60;;;;;;;29.29;26.33;97191.16;4849809;29;20233;-62
2022/06/13 12:46:23;;;;;;;3.83;1.80;;;;;;;30.48;26.59;97204.75;4848788;29;20214;-61
2022/06/13 12:49:01;;;;;;;4.07;1.83;;;;;;;29.38;27.27;97207.63;4820813;29;20227;-61
2022/06/13 12:51:35;;;;;;;4.10;1.93;;;;;;;27.19;29.91;97212.41;4851778;29;20314;-61
2022/06/13 12:54:38;;;;;;;2.77;2.50;;;;;;;26.00;31.58;97217.13;4851064;29;20265;-60
2022/06/13 12:57:15;;;;;;;3.10;1.80;;;;;;;24.87;33.53;97218.53;4843702;29;20286;-61
2022/06/13 12:59:57;;;;;;;2.83;1.70;;;;;;;28.01;29.03;97215.88;4853623;29;20280;-61
2022/06/13 13:02:34;;;;;;;3.07;2.17;;;;;;;30.18;26.54;97215.38;4853286;29;20229;-60
2022/06/13 13:05:19;;;;;;;2.17;1.97;;;;;;;31.16;24.35;97231.88;4809901;29;20240;-61
2022/06/13 13:07:58;;;;;;;2.80;1.83;;;;;;;32.54;24.35;97218.06;4852403;29;20217;-62
2022/06/13 13:10:32;;;;;;;3.10;1.90;;;;;;;32.18;23.79;97236.50;4848078;29;20221;-61
2022/06/13 13:13:20;;;;;;;1.50;1.40;;;;;;;29.55;25.92;97234.31;4846883;29;20283;-59
2022/06/13 13:15:54;;;;;;;3.17;1.97;;;;;;;28.33;28.53;97223.56;4849843;29;20225;-61
2022/06/13 13:18:43;;;;;;;4.07;1.70;;;;;;;30.96;24.52;97224.28;4852959;29;20206;-58
2022/06/13 13:21:20;;;;;;;2.00;1.57;;;;;;;32.73;23.78;97218.47;4815664;29;20962;-62
2022/06/13 13:23:57;;;;;;;4.07;1.80;;;;;;;32.48;22.42;97237.44;4855009;29;20234;-61